Time;durP1;ratioP1;P1;durP2;ratioP2;P2;SDS_P1;SDS_P2;PMS_P1;PMS_P2;Temp;Humidity;BMP_temperature;BMP_pressure;BME280_temperature;BME280_humidity;BME280_pressure;Samples;Min_cycle;Max_cycle;Signal;HPM_P1;HPM_P2
2022/12/10 04:01:15;;;;;;;;;;;-1.40;99.90;;;;;;5815795;23;19937;-70
2022/12/10 04:03:43;;;;;;;;;;;-1.40;99.90;;;;;;4958477;28;19950;-70
2022/12/10 04:06:10;;;;;;;;;;;-1.40;99.90;;;;;;4964711;28;19937;-70
2022/12/10 04:08:37;;;;;;;;;;;-1.30;99.90;;;;;;4966111;28;19930;-71
2022/12/10 04:11:04;;;;;;;;;;;-1.30;99.90;;;;;;4965709;28;19930;-70
2022/12/10 04:16:27;;;;;;;;;;;-1.20;99.90;;;;;;4961625;28;20069;-70
2022/12/10 04:18:54;;;;;;;;;;;-1.20;99.90;;;;;;4959946;28;20377;-70
2022/12/10 04:27:06;;;;;;;;;;;-1.20;99.90;;;;;;4889259;29;19963;-68
2022/12/10 04:29:33;;;;;;;;;;;-1.10;99.90;;;;;;4921591;28;19933;-71
2022/12/10 04:32:02;;;;;;;;;;;-1.10;99.90;;;;;;4962997;28;19930;-70
2022/12/10 04:34:28;;;;;;;;;;;-1.10;99.90;;;;;;4955630;28;19926;-70
2022/12/10 04:36:55;;;;;;;;;;;-1.00;99.90;;;;;;4955097;28;19931;-69
2022/12/10 04:39:22;;;;;;;;;;;-1.00;99.90;;;;;;4965471;28;19926;-70
2022/12/10 04:41:50;;;;;;;;;;;-1.00;99.90;;;;;;4959250;28;19927;-70
2022/12/10 04:44:17;;;;;;;;;;;-1.00;99.90;;;;;;4961829;28;20324;-70
2022/12/10 04:46:44;;;;;;;;;;;-1.00;99.90;;;;;;4963151;28;19926;-70
2022/12/10 04:49:12;;;;;;;;;;;-1.00;99.90;;;;;;4957190;28;19933;-70
2022/12/10 04:51:39;;;;;;;;;;;-1.00;99.90;;;;;;4958444;28;20291;-70
2022/12/10 04:54:06;;;;;;;;;;;-1.00;99.90;;;;;;4969407;28;19947;-70
2022/12/10 04:56:33;;;;;;;;;;;-1.00;99.90;;;;;;4963229;28;19933;-70
2022/12/10 04:59:00;;;;;;;;;;;-1.00;99.90;;;;;;4970395;28;19980;-69
2022/12/10 05:01:27;;;;;;;;;;;-1.10;99.90;;;;;;4962617;28;20393;-68
2022/12/10 05:03:54;;;;;;;;;;;-1.10;99.90;;;;;;4963052;28;19926;-69
2022/12/10 05:06:23;;;;;;;;;;;-1.10;99.90;;;;;;4958242;28;19933;-68
2022/12/10 05:08:49;;;;;;;;;;;-1.10;99.90;;;;;;4955393;28;20408;-66
2022/12/10 05:11:17;;;;;;;;;;;-1.10;99.90;;;;;;4963528;28;19979;-68
2022/12/10 05:13:44;;;;;;;;;;;-1.10;99.90;;;;;;4957718;28;19926;-68
2022/12/10 05:16:12;;;;;;;;;;;-1.10;99.90;;;;;;4963711;28;19926;-68
2022/12/10 05:18:39;;;;;;;;;;;-1.00;99.90;;;;;;4965561;28;20021;-69
2022/12/10 05:21:07;;;;;;;;;;;-1.00;99.90;;;;;;4961260;28;19942;-69
2022/12/10 05:23:35;;;;;;;;;;;-1.00;99.90;;;;;;4966615;28;19927;-68
2022/12/10 05:26:02;;;;;;;;;;;-1.00;99.90;;;;;;4960193;28;19927;-68
2022/12/10 05:28:29;;;;;;;;;;;-1.00;99.90;;;;;;4954158;28;19927;-68
2022/12/10 05:30:56;;;;;;;;;;;-1.00;99.90;;;;;;4958046;28;19930;-69
2022/12/10 05:33:23;;;;;;;;;;;-1.00;99.90;;;;;;4958595;28;19933;-69
2022/12/10 05:35:54;;;;;;;;;;;-1.00;99.90;;;;;;4952510;28;20372;-69
2022/12/10 05:38:21;;;;;;;;;;;-1.00;99.90;;;;;;4951045;28;19926;-68
2022/12/10 05:40:50;;;;;;;;;;;-1.00;99.90;;;;;;4961341;28;19938;-68
2022/12/10 05:43:16;;;;;;;;;;;-1.00;99.90;;;;;;4959530;28;19926;-69
2022/12/10 05:45:43;;;;;;;;;;;-0.90;99.90;;;;;;4966123;28;20385;-69
2022/12/10 05:48:10;;;;;;;;;;;-0.90;99.90;;;;;;4953861;28;19931;-68
2022/12/10 05:50:37;;;;;;;;;;;-0.90;99.90;;;;;;4965036;28;20000;-69
2022/12/10 05:53:04;;;;;;;;;;;-0.90;99.90;;;;;;4954219;28;19974;-69
2022/12/10 05:55:32;;;;;;;;;;;-0.90;99.90;;;;;;4965187;28;19926;-68
2022/12/10 05:58:01;;;;;;;;;;;-0.90;99.90;;;;;;4962588;28;19927;-72
2022/12/10 06:00:28;;;;;;;;;;;-0.90;99.90;;;;;;4959948;28;19926;-69
2022/12/10 06:02:55;;;;;;;;;;;-0.90;99.90;;;;;;4949739;28;19989;-69
2022/12/10 06:05:22;;;;;;;;;;;-0.90;99.90;;;;;;4954653;28;19927;-69
2022/12/10 06:07:49;;;;;;;;;;;-1.00;99.90;;;;;;4955363;28;19926;-68
2022/12/10 06:10:15;;;;;;;;;;;-1.00;99.90;;;;;;4953217;28;19930;-68
2022/12/10 06:12:42;;;;;;;;;;;-1.00;99.90;;;;;;4953454;28;20369;-68
2022/12/10 06:15:11;;;;;;;;;;;-1.00;99.90;;;;;;4953175;28;19927;-68
2022/12/10 06:17:38;;;;;;;;;;;-1.00;99.90;;;;;;4952366;28;20022;-69
2022/12/10 06:20:05;;;;;;;;;;;-1.00;99.90;;;;;;4944660;28;20386;-68
2022/12/10 06:22:32;;;;;;;;;;;-0.90;99.90;;;;;;4946630;28;19931;-67
2022/12/10 06:24:58;;;;;;;;;;;-0.90;99.90;;;;;;4948427;28;19942;-67
2022/12/10 06:27:25;;;;;;;;;;;-0.90;99.90;;;;;;4953107;28;19934;-68
2022/12/10 06:29:52;;;;;;;;;;;-0.90;99.90;;;;;;4952654;28;19930;-68
2022/12/10 06:32:20;;;;;;;;;;;-0.90;99.90;;;;;;4952908;28;20274;-67
2022/12/10 06:34:47;;;;;;;;;;;-0.90;99.90;;;;;;4948529;28;19934;-68
2022/12/10 06:37:14;;;;;;;;;;;-0.90;99.90;;;;;;4955516;28;19926;-67
2022/12/10 06:39:40;;;;;;;;;;;-0.90;99.90;;;;;;4952359;28;19931;-68
2022/12/10 06:42:08;;;;;;;;;;;-1.00;99.90;;;;;;4953073;28;19958;-68
2022/12/10 06:44:35;;;;;;;;;;;-1.00;99.90;;;;;;4952688;28;20014;-68
2022/12/10 06:47:01;;;;;;;;;;;-1.00;99.90;;;;;;4952859;28;19934;-69
2022/12/10 06:49:30;;;;;;;;;;;-0.90;99.90;;;;;;4952410;28;20290;-69
2022/12/10 06:51:56;;;;;;;;;;;-0.90;99.90;;;;;;4955759;28;19940;-69
2022/12/10 06:54:23;;;;;;;;;;;-0.90;99.90;;;;;;4949605;28;19926;-69
2022/12/10 06:56:50;;;;;;;;;;;-0.80;99.90;;;;;;4953033;28;19933;-69
2022/12/10 06:59:17;;;;;;;;;;;-0.80;99.90;;;;;;4952291;29;19973;-69
2022/12/10 07:01:44;;;;;;;;;;;-0.80;99.90;;;;;;4954899;28;19931;-70
2022/12/10 07:04:11;;;;;;;;;;;-0.80;99.90;;;;;;4948361;28;20377;-68
2022/12/10 07:06:39;;;;;;;;;;;-0.80;99.90;;;;;;4952549;28;19933;-69
2022/12/10 07:09:06;;;;;;;;;;;-0.80;99.90;;;;;;4952175;28;20294;-69
2022/12/10 07:11:33;;;;;;;;;;;-0.80;99.90;;;;;;4952658;28;19933;-68
2022/12/10 07:13:59;;;;;;;;;;;-0.80;99.90;;;;;;4951105;28;19926;-68
2022/12/10 07:16:27;;;;;;;;;;;-0.80;99.90;;;;;;4949023;28;19930;-69
2022/12/10 07:18:55;;;;;;;;;;;-0.80;99.90;;;;;;4947097;28;19986;-69
2022/12/10 07:21:23;;;;;;;;;;;-0.80;99.90;;;;;;4950047;28;20058;-69
2022/12/10 07:23:53;;;;;;;;;;;-0.80;99.90;;;;;;4954766;28;19966;-69
2022/12/10 07:26:20;;;;;;;;;;;-0.80;99.90;;;;;;4952325;28;19927;-69
2022/12/10 07:28:47;;;;;;;;;;;-0.80;99.90;;;;;;4956712;28;20029;-70
2022/12/10 07:31:14;;;;;;;;;;;-0.80;99.90;;;;;;4952160;28;19939;-70
2022/12/10 07:33:41;;;;;;;;;;;-0.80;99.90;;;;;;4952547;28;19926;-69
2022/12/10 07:36:08;;;;;;;;;;;-0.80;99.90;;;;;;4952790;28;19926;-69
2022/12/10 07:38:35;;;;;;;;;;;-0.70;99.90;;;;;;4952397;28;20349;-69
2022/12/10 07:41:08;;;;;;;;;;;-0.80;99.90;;;;;;4951800;28;19958;-69
2022/12/10 07:43:35;;;;;;;;;;;-0.70;99.90;;;;;;4968603;28;19926;-70
2022/12/10 07:46:06;;;;;;;;;;;-0.70;99.90;;;;;;4956535;28;19926;-69
2022/12/10 07:48:34;;;;;;;;;;;-0.70;99.90;;;;;;4952300;29;19938;-71
2022/12/10 07:51:00;;;;;;;;;;;-0.70;99.90;;;;;;4950663;28;19934;-69
2022/12/10 07:53:27;;;;;;;;;;;-0.70;99.90;;;;;;4952010;28;19930;-69
2022/12/10 07:55:54;;;;;;;;;;;-0.70;99.90;;;;;;4952718;28;19989;-69
2022/12/10 07:58:22;;;;;;;;;;;-0.70;99.90;;;;;;4944608;28;19930;-69
2022/12/10 08:00:49;;;;;;;;;;;-0.60;99.90;;;;;;4951813;28;19981;-70
2022/12/10 08:03:16;;;;;;;;;;;-0.50;99.90;;;;;;4951777;28;19926;-69
2022/12/10 08:05:43;;;;;;;;;;;-0.40;99.90;;;;;;4952117;28;19955;-69
2022/12/10 08:08:09;;;;;;;;;;;-0.40;99.90;;;;;;4951996;28;19990;-69
2022/12/10 08:10:37;;;;;;;;;;;-0.40;99.90;;;;;;4951545;28;19961;-69
2022/12/10 08:13:04;;;;;;;;;;;-0.40;99.90;;;;;;4951734;28;19926;-70
2022/12/10 08:15:32;;;;;;;;;;;-0.30;99.90;;;;;;4951273;28;19958;-69
2022/12/10 08:17:59;;;;;;;;;;;-0.30;99.90;;;;;;4955145;28;19930;-69
2022/12/10 08:20:26;;;;;;;;;;;-0.20;99.90;;;;;;4952483;28;20325;-70
2022/12/10 08:22:53;;;;;;;;;;;-0.20;99.90;;;;;;4957687;28;20468;-67
2022/12/10 08:25:21;;;;;;;;;;;-0.20;99.90;;;;;;4955289;28;19950;-70
2022/12/10 08:27:47;;;;;;;;;;;-0.20;99.90;;;;;;4958875;28;19934;-69
2022/12/10 08:30:14;;;;;;;;;;;-0.10;99.90;;;;;;4954367;28;19933;-69
2022/12/10 08:32:42;;;;;;;;;;;-0.10;99.90;;;;;;4954873;28;19927;-69
2022/12/10 08:35:09;;;;;;;;;;;-0.20;99.90;;;;;;4953522;28;19969;-69
2022/12/10 08:37:36;;;;;;;;;;;-0.20;99.90;;;;;;4955445;28;20385;-69
2022/12/10 08:40:03;;;;;;;;;;;-0.20;99.90;;;;;;4954816;28;20321;-69
2022/12/10 08:42:30;;;;;;;;;;;-0.10;99.90;;;;;;4954645;28;20026;-69
2022/12/10 08:44:57;;;;;;;;;;;0.00;99.90;;;;;;4961931;28;20364;-68
2022/12/10 08:47:23;;;;;;;;;;;0.00;99.90;;;;;;4952212;28;19930;-69
2022/12/10 08:49:51;;;;;;;;;;;-0.10;99.90;;;;;;4954520;28;20295;-69
2022/12/10 08:52:20;;;;;;;;;;;-0.10;99.90;;;;;;4953202;28;19927;-69
2022/12/10 08:54:47;;;;;;;;;;;-0.10;99.90;;;;;;4955025;28;19934;-68
2022/12/10 08:57:13;;;;;;;;;;;-0.20;99.90;;;;;;4954817;28;19994;-68
2022/12/10 08:59:40;;;;;;;;;;;-0.10;99.90;;;;;;4957629;28;20345;-70
2022/12/10 09:02:08;;;;;;;;;;;-0.20;99.90;;;;;;4956155;28;19927;-67
2022/12/10 09:04:35;;;;;;;;;;;-0.20;99.90;;;;;;4953945;28;19926;-67
2022/12/10 09:07:04;;;;;;;;;;;-0.10;99.90;;;;;;4954862;28;19933;-68
2022/12/10 09:09:32;;;;;;;;;;;-0.10;99.90;;;;;;4953988;28;19926;-68
2022/12/10 09:11:59;;;;;;;;;;;-0.10;99.90;;;;;;4954450;28;19931;-68
2022/12/10 09:14:27;;;;;;;;;;;0.00;99.90;;;;;;4947937;28;19927;-68
2022/12/10 09:16:53;;;;;;;;;;;0.00;99.90;;;;;;4954056;28;20397;-70
2022/12/10 09:19:20;;;;;;;;;;;0.00;99.90;;;;;;4961888;28;20309;-72
2022/12/10 09:21:48;;;;;;;;;;;0.10;99.90;;;;;;4959365;28;19926;-72
2022/12/10 09:24:16;;;;;;;;;;;0.10;99.90;;;;;;4963111;28;20037;-72
2022/12/10 09:26:43;;;;;;;;;;;0.20;99.90;;;;;;4959557;28;19926;-72
2022/12/10 09:29:10;;;;;;;;;;;0.30;99.90;;;;;;4961815;28;19954;-72
2022/12/10 09:31:36;;;;;;;;;;;0.30;99.90;;;;;;4960052;28;19998;-71
2022/12/10 09:34:03;;;;;;;;;;;0.20;99.90;;;;;;4957181;28;19926;-72
2022/12/10 09:36:30;;;;;;;;;;;0.30;99.90;;;;;;4965351;28;19926;-72
2022/12/10 09:38:57;;;;;;;;;;;0.40;99.90;;;;;;4960934;28;19926;-72
2022/12/10 09:41:44;;;;;;;;;;;0.40;99.90;;;;;;4966013;28;20393;-74
2022/12/10 09:44:14;;;;;;;;;;;0.40;99.90;;;;;;4966502;28;19933;-74
2022/12/10 09:46:45;;;;;;;;;;;0.50;99.90;;;;;;4958939;28;20405;-73
2022/12/10 09:49:16;;;;;;;;;;;0.50;99.90;;;;;;4961870;28;19930;-73
2022/12/10 09:51:43;;;;;;;;;;;0.70;99.90;;;;;;4958952;28;19970;-72
2022/12/10 09:54:16;;;;;;;;;;;0.70;99.90;;;;;;4957873;28;19933;-70
2022/12/10 09:56:44;;;;;;;;;;;0.70;99.90;;;;;;4962518;28;19926;-70
2022/12/10 09:59:14;;;;;;;;;;;0.70;99.90;;;;;;4961898;28;19933;-72
2022/12/10 10:01:41;;;;;;;;;;;0.90;99.90;;;;;;4962727;28;19927;-72
2022/12/10 10:04:09;;;;;;;;;;;1.00;99.90;;;;;;4962847;28;19927;-69
2022/12/10 10:06:36;;;;;;;;;;;1.10;99.90;;;;;;4962929;28;19931;-71
2022/12/10 10:09:03;;;;;;;;;;;1.10;99.90;;;;;;4961655;28;19926;-71
2022/12/10 10:11:31;;;;;;;;;;;1.20;99.90;;;;;;4961953;28;19934;-70
2022/12/10 10:14:02;;;;;;;;;;;1.10;99.90;;;;;;4964122;28;19933;-72
2022/12/10 10:16:31;;;;;;;;;;;1.20;99.90;;;;;;4964610;28;19926;-75
2022/12/10 10:18:59;;;;;;;;;;;1.10;99.90;;;;;;4961124;28;19926;-71
2022/12/10 10:21:28;;;;;;;;;;;1.20;99.90;;;;;;4962824;28;19934;-72
2022/12/10 10:23:55;;;;;;;;;;;1.10;99.90;;;;;;4956906;28;19938;-72
2022/12/10 10:26:24;;;;;;;;;;;1.30;99.90;;;;;;4954984;28;19926;-71
2022/12/10 10:28:55;;;;;;;;;;;1.50;99.90;;;;;;4956068;28;19926;-70
2022/12/10 10:31:25;;;;;;;;;;;1.50;99.90;;;;;;4959880;28;19926;-70
2022/12/10 10:33:56;;;;;;;;;;;1.60;99.90;;;;;;4956882;23;19927;-69
2022/12/10 10:36:27;;;;;;;;;;;1.40;99.90;;;;;;4922543;29;19950;-68
2022/12/10 10:38:54;;;;;;;;;;;1.40;99.90;;;;;;4926789;29;19931;-67
2022/12/10 10:41:21;;;;;;;;;;;1.50;99.90;;;;;;4932347;29;20018;-69
2022/12/10 10:43:54;;;;;;;;;;;1.40;99.90;;;;;;4916280;29;19927;-68
2022/12/10 10:46:22;;;;;;;;;;;1.40;99.90;;;;;;4913095;29;20394;-70
2022/12/10 10:48:51;;;;;;;;;;;1.40;99.90;;;;;;4912926;29;19931;-67
2022/12/10 10:51:20;;;;;;;;;;;1.40;99.90;;;;;;4913556;29;19927;-69
2022/12/10 10:53:48;;;;;;;;;;;1.50;99.90;;;;;;4912891;29;19960;-69
2022/12/10 10:56:17;;;;;;;;;;;2.30;99.90;;;;;;4908935;29;20025;-69
2022/12/10 10:58:50;;;;;;;;;;;2.50;99.90;;;;;;4908973;29;19934;-69
2022/12/10 11:01:17;;;;;;;;;;;2.50;99.90;;;;;;4910189;29;20403;-69
2022/12/10 11:03:47;;;;;;;;;;;2.40;99.90;;;;;;4907454;29;20442;-68
2022/12/10 11:06:15;;;;;;;;;;;2.30;99.90;;;;;;4911557;29;19928;-69
2022/12/10 11:08:43;;;;;;;;;;;2.60;99.90;;;;;;4912356;29;20008;-69
2022/12/10 11:11:13;;;;;;;;;;;2.70;99.90;;;;;;4913546;29;19927;-70
2022/12/10 11:13:40;;;;;;;;;;;3.10;99.90;;;;;;4913249;29;19931;-69
2022/12/10 11:16:11;;;;;;;;;;;3.00;99.90;;;;;;4911699;29;19931;-69
2022/12/10 11:18:41;;;;;;;;;;;2.60;99.90;;;;;;4912432;29;19990;-69
2022/12/10 11:21:16;;;;;;;;;;;2.50;99.90;;;;;;4926607;29;19927;-69
2022/12/10 11:23:46;;;;;;;;;;;2.60;99.90;;;;;;4913419;29;19927;-70
2022/12/10 11:26:30;;;;;;;;;;;2.90;99.90;;;;;;4913429;29;20029;-70
2022/12/10 11:29:02;;;;;;;;;;;2.80;99.90;;;;;;4912549;29;19934;-68
2022/12/10 11:31:35;;;;;;;;;;;2.80;99.90;;;;;;4913367;29;19975;-69
2022/12/10 11:34:08;;;;;;;;;;;3.00;99.90;;;;;;4912921;29;19955;-70
2022/12/10 11:36:38;;;;;;;;;;;2.80;99.90;;;;;;4911730;29;20414;-70
2022/12/10 11:39:11;;;;;;;;;;;2.70;99.90;;;;;;4915175;29;19959;-69
2022/12/10 11:41:39;;;;;;;;;;;2.80;99.90;;;;;;4908831;29;19927;-70
2022/12/10 11:44:13;;;;;;;;;;;2.80;99.90;;;;;;4911627;29;20016;-69
2022/12/10 11:46:52;;;;;;;;;;;2.80;99.90;;;;;;4913252;29;19935;-70
2022/12/10 11:49:26;;;;;;;;;;;3.10;99.90;;;;;;4902140;29;19927;-71
2022/12/10 11:52:04;;;;;;;;;;;4.00;99.90;;;;;;4906252;29;19932;-67
2022/12/10 11:54:39;;;;;;;;;;;3.70;99.90;;;;;;4911991;29;19934;-69
2022/12/10 11:57:09;;;;;;;;;;;4.30;99.90;;;;;;4901882;29;19931;-72
2022/12/10 11:59:42;;;;;;;;;;;4.20;99.90;;;;;;4913661;29;20354;-69
2022/12/10 12:02:20;;;;;;;;;;;4.90;99.90;;;;;;4925459;29;19934;-70
2022/12/10 12:04:53;;;;;;;;;;;5.20;99.90;;;;;;4913467;29;20336;-67
2022/12/10 12:07:34;;;;;;;;;;;4.80;99.90;;;;;;4909969;29;20355;-68
2022/12/10 12:10:16;;;;;;;;;;;3.80;99.90;;;;;;4924747;29;19927;-68
2022/12/10 12:12:45;;;;;;;;;;;3.60;99.90;;;;;;4906589;29;19927;-69
2022/12/10 12:15:17;;;;;;;;;;;4.50;99.90;;;;;;4913952;29;19927;-67
2022/12/10 12:17:45;;;;;;;;;;;4.00;99.90;;;;;;4907519;29;20459;-69
2022/12/10 12:20:15;;;;;;;;;;;3.80;99.90;;;;;;4900670;29;19935;-68
2022/12/10 12:22:44;;;;;;;;;;;4.40;99.90;;;;;;4910769;29;20338;-68
2022/12/10 12:25:17;;;;;;;;;;;5.50;99.90;;;;;;4909855;29;20466;-70
2022/12/10 12:27:49;;;;;;;;;;;4.80;99.90;;;;;;4911851;29;19927;-65
2022/12/10 12:30:18;;;;;;;;;;;4.40;99.90;;;;;;4911930;29;19952;-66
2022/12/10 12:32:50;;;;;;;;;;;3.10;99.90;;;;;;4912512;29;19927;-68
2022/12/10 12:35:18;;;;;;;;;;;2.80;99.90;;;;;;4914385;29;19927;-67
2022/12/10 12:37:47;;;;;;;;;;;2.40;99.90;;;;;;4913019;29;19931;-69
2022/12/10 12:40:17;;;;;;;;;;;2.20;99.90;;;;;;4913433;29;19934;-67
2022/12/10 12:42:47;;;;;;;;;;;1.90;99.90;;;;;;4914000;29;19934;-68
2022/12/10 12:45:15;;;;;;;;;;;1.70;99.90;;;;;;4911816;29;19931;-68
2022/12/10 12:47:44;;;;;;;;;;;1.30;99.90;;;;;;4915811;29;20369;-68
2022/12/10 12:50:19;;;;;;;;;;;1.20;99.90;;;;;;4908962;29;19935;-68
2022/12/10 12:52:49;;;;;;;;;;;1.00;99.90;;;;;;4911950;29;19934;-68
2022/12/10 12:55:19;;;;;;;;;;;1.00;99.90;;;;;;4912315;29;19934;-68
2022/12/10 12:57:50;;;;;;;;;;;1.00;99.90;;;;;;4913887;29;19927;-68
2022/12/10 13:00:21;;;;;;;;;;;0.90;99.90;;;;;;4914112;29;19928;-68
2022/12/10 13:02:53;;;;;;;;;;;0.70;99.90;;;;;;4915482;29;20370;-66
2022/12/10 13:05:24;;;;;;;;;;;0.50;99.90;;;;;;4910284;29;19928;-68
2022/12/10 13:08:05;;;;;;;;;;;0.50;99.90;;;;;;4908108;29;20398;-68
2022/12/10 13:10:44;;;;;;;;;;;0.60;99.90;;;;;;4906015;29;19928;-68
2022/12/10 13:13:23;;;;;;;;;;;0.60;99.90;;;;;;4913083;29;19935;-68
2022/12/10 13:15:50;;;;;;;;;;;0.70;99.90;;;;;;4907580;29;20020;-70
2022/12/10 13:18:34;;;;;;;;;;;0.70;99.90;;;;;;4923616;29;20362;-67
2022/12/10 13:21:16;;;;;;;;;;;0.70;99.90;;;;;;4924520;29;19931;-68
2022/12/10 13:23:50;;;;;;;;;;;0.60;99.90;;;;;;4907558;29;19927;-68
2022/12/10 13:26:25;;;;;;;;;;;0.60;99.90;;;;;;4920518;29;19958;-70
2022/12/10 13:28:53;;;;;;;;;;;0.40;99.90;;;;;;4907304;29;19935;-69
2022/12/10 13:31:23;;;;;;;;;;;0.50;99.90;;;;;;4923869;29;19928;-68
2022/12/10 13:33:52;;;;;;;;;;;0.40;99.90;;;;;;4909553;29;19931;-69
2022/12/10 13:36:24;;;;;;;;;;;0.30;99.90;;;;;;4923733;29;19935;-69
2022/12/10 13:39:11;;;;;;;;;;;0.30;99.90;;;;;;4922550;29;20454;-67
2022/12/10 13:44:32;;;;;;;;;;;0.40;99.90;;;;;;4913809;29;20458;-68
2022/12/10 13:47:00;;;;;;;;;;;0.40;99.90;;;;;;4911265;29;19928;-69
2022/12/10 13:49:29;;;;;;;;;;;0.40;99.90;;;;;;4911072;29;19927;-68
2022/12/10 13:51:58;;;;;;;;;;;0.40;99.90;;;;;;4910478;29;20351;-68
2022/12/10 13:54:42;;;;;;;;;;;0.30;99.90;;;;;;4908811;29;19927;-70
2022/12/10 13:57:16;;;;;;;;;;;0.30;99.90;;;;;;4909030;29;20026;-69
2022/12/10 13:59:46;;;;;;;;;;;0.30;99.90;;;;;;4912365;29;19962;-70
2022/12/10 14:02:36;;;;;;;;;;;0.20;99.90;;;;;;4907786;29;20018;-69
2022/12/10 14:05:15;;;;;;;;;;;0.20;99.90;;;;;;4908485;29;20402;-68
2022/12/10 14:07:44;;;;;;;;;;;0.20;99.90;;;;;;4907220;29;19982;-69
2022/12/10 14:10:15;;;;;;;;;;;0.20;99.90;;;;;;4914335;29;20010;-69
2022/12/10 14:12:44;;;;;;;;;;;0.20;99.90;;;;;;4914172;29;19942;-69
2022/12/10 14:15:17;;;;;;;;;;;0.20;99.90;;;;;;4912221;29;20296;-69
2022/12/10 14:17:44;;;;;;;;;;;0.30;99.90;;;;;;4906349;29;19973;-69
2022/12/10 14:20:15;;;;;;;;;;;0.30;99.90;;;;;;4909738;29;20246;-68
2022/12/10 14:22:45;;;;;;;;;;;0.30;99.90;;;;;;4913746;29;19927;-70
2022/12/10 14:25:15;;;;;;;;;;;0.30;99.90;;;;;;4917088;29;19931;-68
2022/12/10 14:27:44;;;;;;;;;;;0.30;99.90;;;;;;4908890;29;20434;-68
2022/12/10 14:30:16;;;;;;;;;;;0.30;99.90;;;;;;4911618;29;19934;-68
2022/12/10 14:32:43;;;;;;;;;;;0.20;99.90;;;;;;4912291;29;19982;-68
2022/12/10 14:35:13;;;;;;;;;;;0.10;99.90;;;;;;4911346;29;19927;-68
2022/12/10 14:37:42;;;;;;;;;;;0.10;99.90;;;;;;4910238;29;19930;-69
2022/12/10 14:40:09;;;;;;;;;;;0.10;99.90;;;;;;4904879;29;19928;-68
2022/12/10 14:42:38;;;;;;;;;;;0.10;99.90;;;;;;4909875;29;19928;-68
2022/12/10 14:45:08;;;;;;;;;;;0.10;99.90;;;;;;4903865;29;19931;-68
2022/12/10 14:47:37;;;;;;;;;;;0.10;99.90;;;;;;4908148;29;20474;-69
2022/12/10 14:50:05;;;;;;;;;;;0.20;99.90;;;;;;4907609;29;20368;-70
2022/12/10 14:52:35;;;;;;;;;;;0.10;99.90;;;;;;4908739;29;20022;-69
2022/12/10 14:55:02;;;;;;;;;;;0.10;99.90;;;;;;4909718;29;20406;-68
2022/12/10 14:57:32;;;;;;;;;;;0.20;99.90;;;;;;4908570;29;19928;-68
2022/12/10 15:00:03;;;;;;;;;;;0.20;99.90;;;;;;4905243;29;19931;-70
2022/12/10 15:02:34;;;;;;;;;;;0.20;99.90;;;;;;4909733;29;19966;-67
2022/12/10 15:05:01;;;;;;;;;;;0.20;99.90;;;;;;4909971;29;20284;-68
2022/12/10 15:07:34;;;;;;;;;;;0.10;99.90;;;;;;4914037;29;19928;-68
2022/12/10 15:10:02;;;;;;;;;;;0.10;99.90;;;;;;4903524;29;19954;-68
2022/12/10 15:12:31;;;;;;;;;;;0.10;99.90;;;;;;4906715;29;20315;-68
2022/12/10 15:15:00;;;;;;;;;;;0.10;99.90;;;;;;4913821;29;19927;-68
2022/12/10 15:17:48;;;;;;;;;;;0.10;99.90;;;;;;4909638;29;19927;-70
2022/12/10 15:20:24;;;;;;;;;;;0.10;99.90;;;;;;4903479;29;19935;-68
2022/12/10 15:22:51;;;;;;;;;;;0.20;99.90;;;;;;4906896;29;19931;-70
2022/12/10 15:25:22;;;;;;;;;;;0.20;99.90;;;;;;4908218;29;19991;-69
2022/12/10 15:27:53;;;;;;;;;;;0.20;99.90;;;;;;4913609;29;19927;-68
2022/12/10 15:30:24;;;;;;;;;;;0.20;99.90;;;;;;4930336;29;19948;-69
2022/12/10 15:32:50;;;;;;;;;;;0.20;99.90;;;;;;4932524;29;19927;-69
2022/12/10 15:35:17;;;;;;;;;;;0.20;99.90;;;;;;4911031;29;19927;-69
2022/12/10 15:37:50;;;;;;;;;;;0.20;99.90;;;;;;4908639;29;19930;-68
2022/12/10 15:40:23;;;;;;;;;;;0.20;99.90;;;;;;4905931;29;19928;-69
2022/12/10 15:42:50;;;;;;;;;;;0.20;99.90;;;;;;4925273;29;19979;-69
2022/12/10 15:45:21;;;;;;;;;;;0.20;99.90;;;;;;4913638;29;20287;-67
2022/12/10 15:47:48;;;;;;;;;;;0.20;99.90;;;;;;4925511;29;19935;-70
2022/12/10 15:50:15;;;;;;;;;;;0.20;99.90;;;;;;4926778;29;20414;-68
2022/12/10 15:52:44;;;;;;;;;;;0.20;99.90;;;;;;4919413;29;20450;-69
2022/12/10 15:55:14;;;;;;;;;;;0.20;99.90;;;;;;4915891;29;20306;-68
2022/12/10 15:57:44;;;;;;;;;;;0.20;99.90;;;;;;4916793;29;19954;-69
2022/12/10 16:00:20;;;;;;;;;;;0.20;99.90;;;;;;4912266;29;19987;-70
2022/12/10 16:02:48;;;;;;;;;;;0.10;99.90;;;;;;4912753;29;20318;-69
2022/12/10 16:05:17;;;;;;;;;;;0.20;99.90;;;;;;4924880;29;19927;-69
2022/12/10 16:07:45;;;;;;;;;;;0.20;99.90;;;;;;4920688;29;20021;-69
2022/12/10 16:10:14;;;;;;;;;;;0.20;99.90;;;;;;4915339;29;19934;-69
2022/12/10 16:12:42;;;;;;;;;;;0.20;99.90;;;;;;4908574;29;19993;-69
2022/12/10 16:15:12;;;;;;;;;;;0.20;99.90;;;;;;4912376;29;19935;-70
2022/12/10 16:17:39;;;;;;;;;;;0.20;99.90;;;;;;4912108;29;19931;-71
2022/12/10 16:20:14;;;;;;;;;;;0.20;99.90;;;;;;4912115;29;19958;-70
2022/12/10 16:22:41;;;;;;;;;;;0.30;99.90;;;;;;4919952;29;19931;-70
2022/12/10 16:25:14;;;;;;;;;;;0.20;99.90;;;;;;4910691;29;19934;-70
2022/12/10 16:27:43;;;;;;;;;;;0.20;99.90;;;;;;4914318;29;19982;-69
2022/12/10 16:30:13;;;;;;;;;;;0.30;99.90;;;;;;4913920;29;20394;-71
2022/12/10 16:32:39;;;;;;;;;;;0.30;99.90;;;;;;4914402;29;19982;-69
2022/12/10 16:35:06;;;;;;;;;;;0.20;99.90;;;;;;4908667;29;19950;-69
2022/12/10 16:37:33;;;;;;;;;;;0.20;99.90;;;;;;4911547;29;19988;-69
2022/12/10 16:40:00;;;;;;;;;;;0.20;99.90;;;;;;4915245;29;19927;-69
2022/12/10 16:42:27;;;;;;;;;;;0.20;99.90;;;;;;4915339;29;19927;-69
2022/12/10 16:44:56;;;;;;;;;;;0.20;99.90;;;;;;4912671;29;19931;-70
2022/12/10 16:47:23;;;;;;;;;;;0.20;99.90;;;;;;4900509;29;20407;-71
2022/12/10 16:49:50;;;;;;;;;;;0.20;99.90;;;;;;4915058;29;20355;-68
2022/12/10 16:52:16;;;;;;;;;;;0.20;99.90;;;;;;4911635;29;19927;-69
2022/12/10 16:54:44;;;;;;;;;;;0.20;99.90;;;;;;4912048;29;19927;-69
2022/12/10 16:57:12;;;;;;;;;;;0.20;99.90;;;;;;4914253;29;20025;-70
2022/12/10 16:59:39;;;;;;;;;;;0.20;99.90;;;;;;4910056;29;19979;-71
2022/12/10 17:02:10;;;;;;;;;;;0.30;99.90;;;;;;4910656;29;19927;-70
2022/12/10 17:04:36;;;;;;;;;;;0.30;99.90;;;;;;4911112;29;19927;-68
2022/12/10 17:07:03;;;;;;;;;;;0.20;99.90;;;;;;4910658;29;19927;-69
2022/12/10 17:09:30;;;;;;;;;;;0.20;99.90;;;;;;4914307;29;19928;-69
2022/12/10 17:11:57;;;;;;;;;;;0.20;99.90;;;;;;4908941;29;19927;-68
2022/12/10 17:14:25;;;;;;;;;;;0.20;99.90;;;;;;4914253;29;19927;-70
2022/12/10 17:16:52;;;;;;;;;;;0.20;99.90;;;;;;4905451;29;20433;-69
2022/12/10 17:19:21;;;;;;;;;;;0.20;99.90;;;;;;4914066;29;19927;-70
2022/12/10 17:21:47;;;;;;;;;;;0.20;99.90;;;;;;4908983;29;19940;-69
2022/12/10 17:24:14;;;;;;;;;;;0.20;99.90;;;;;;4912912;29;19931;-70
2022/12/10 17:26:43;;;;;;;;;;;0.20;99.90;;;;;;4910685;29;19931;-70
2022/12/10 17:29:13;;;;;;;;;;;0.20;99.90;;;;;;4908593;29;19928;-70
2022/12/10 17:31:40;;;;;;;;;;;0.20;99.90;;;;;;4912207;29;19935;-70
2022/12/10 17:34:07;;;;;;;;;;;0.20;99.90;;;;;;4910234;29;19962;-71
2022/12/10 17:36:36;;;;;;;;;;;0.20;99.90;;;;;;4913025;29;19927;-70
2022/12/10 17:39:02;;;;;;;;;;;0.20;99.90;;;;;;4912825;29;19987;-72
2022/12/10 17:41:29;;;;;;;;;;;0.20;99.90;;;;;;4914210;29;19927;-71
2022/12/10 17:43:56;;;;;;;;;;;0.10;99.90;;;;;;4910338;29;20394;-69
2022/12/10 17:46:24;;;;;;;;;;;0.10;99.90;;;;;;4908315;29;20355;-72
2022/12/10 17:48:50;;;;;;;;;;;0.10;99.90;;;;;;4909243;29;19931;-70
2022/12/10 17:51:17;;;;;;;;;;;0.10;99.90;;;;;;4913923;29;19935;-69
2022/12/10 17:53:46;;;;;;;;;;;0.10;99.90;;;;;;4912505;29;19950;-69
2022/12/10 17:56:14;;;;;;;;;;;0.10;99.90;;;;;;4926113;29;19926;-72
2022/12/10 17:58:41;;;;;;;;;;;0.00;99.90;;;;;;4915915;29;19931;-70
2022/12/10 18:01:08;;;;;;;;;;;0.00;99.90;;;;;;4914012;29;19974;-68
2022/12/10 18:03:35;;;;;;;;;;;-0.10;99.90;;;;;;4906678;29;19928;-68
2022/12/10 18:06:03;;;;;;;;;;;-0.10;99.90;;;;;;4913486;29;20284;-69
2022/12/10 18:08:30;;;;;;;;;;;-0.10;99.90;;;;;;4908489;29;19927;-68
2022/12/10 18:10:58;;;;;;;;;;;-0.10;99.90;;;;;;4911686;29;20391;-68
2022/12/10 18:13:25;;;;;;;;;;;-0.10;99.90;;;;;;4915078;29;19927;-69
2022/12/10 18:15:51;;;;;;;;;;;-0.20;99.90;;;;;;4915477;29;19927;-69
2022/12/10 18:18:18;;;;;;;;;;;-0.20;99.90;;;;;;4915052;29;20406;-69
2022/12/10 18:20:45;;;;;;;;;;;-0.20;99.90;;;;;;4913687;29;19927;-69
2022/12/10 18:23:13;;;;;;;;;;;-0.20;99.90;;;;;;4913773;29;19927;-68
2022/12/10 18:25:41;;;;;;;;;;;-0.20;99.90;;;;;;4915095;29;19927;-69
2022/12/10 18:28:16;;;;;;;;;;;-0.20;99.90;;;;;;4907577;29;19959;-68
2022/12/10 18:30:43;;;;;;;;;;;-0.20;99.90;;;;;;4914782;29;19927;-69
2022/12/10 18:33:09;;;;;;;;;;;-0.10;99.90;;;;;;4907206;29;19927;-69
2022/12/10 18:35:36;;;;;;;;;;;-0.10;99.90;;;;;;4910251;29;19931;-69
2022/12/10 18:38:03;;;;;;;;;;;-0.20;99.90;;;;;;4917918;29;19927;-69
2022/12/10 18:40:32;;;;;;;;;;;-0.20;99.90;;;;;;4911532;29;20416;-68
2022/12/10 18:42:58;;;;;;;;;;;-0.20;99.90;;;;;;4917287;29;19927;-69
2022/12/10 18:45:27;;;;;;;;;;;-0.20;99.90;;;;;;4922009;29;19931;-69